• Join FlightAware (Why Join?)
  • Login
  • US Flag 
08:22AM EDT


 

Airport Tracker/Info


-or-


 

Live Flight TrackerFlight Track Log ✈ DAL6034 ✈ 30-Apr-2013 ✈ KLGA - KMHT

Flight Track Log - Related Links

Times and Time Zones

All times are in EDT time to prevent confusion due to time zone crossing. See the DAL6034 flight status page for this flight to view local times or setup timezone preferences in your user account.

Time Position Orientation Groundspeed Altitude Reporting Facility
EDT Latitude Longitude Course Direction KTS MPH feet Rate Location/Type
03:22PM 40.7667 -73.8500 27° Northeast 154 177 900  Level New York TRACON
03:24PM 40.8780 -73.7311 39° Northeast  Level Estimated
03:25PM 41.1069 -73.6022 28° Northeast  Level FlightAware Approximate
03:25PM 40.8300 -73.7375 39° Northeast 268 308 7,400  Level Boston Center
03:26PM 41.1910 -73.5329 33° Northeast  Level FlightAware Approximate
03:26PM 40.8950 -73.6975 25° Northeast 274 315 9,900  Level Boston Center
03:27PM 41.2742 -73.4616 27° Northeast  Level FlightAware Approximate
03:27PM 40.9642 -73.6522 26° Northeast 274 315 11,500  Level Boston Center
03:28PM 41.0336 -73.5875 35° Northeast 289 333 13,100 1,500 Climbing Boston Center
03:29PM 41.1056 -73.4897 46° Northeast 315 362 14,600 1,440 Climbing Boston Center
03:30PM 41.1728 -73.4189 38° Northeast 332 382 16,000 1,200 Climbing Boston Center
03:31PM 41.2692 -73.3486 29° Northeast 348 400 17,000 480 Climbing Boston Center
03:32PM 41.3550 -73.2947 25° Northeast 364 419 17,000  Level Boston Center
03:33PM 41.4578 -73.2267 26° Northeast 369 425 17,000  Level Boston Center
03:34PM 41.5394 -73.1694 28° Northeast 364 419 17,000  Level Boston Center
03:35PM 41.6378 -73.1011 27° Northeast 364 419 17,000  Level Boston Center
03:36PM 41.7172 -73.0464 27° Northeast 358 412 17,000  Level Boston Center
03:37PM 41.8050 -72.9858 27° Northeast 358 412 17,000  Level Boston Center
03:38PM 41.8972 -72.9225 27° Northeast 358 412 17,000  Level Boston Center
03:39PM 41.9869 -72.8592 28° Northeast 358 412 17,000  Level Boston Center
03:40PM 42.0789 -72.7953 27° Northeast 358 412 17,000  Level Boston Center
03:41PM 42.1792 -72.7258 27° Northeast 366 421 17,000  Level Boston Center
03:42PM 42.2708 -72.6617 27° Northeast 366 421 17,000  Level Boston Center
03:43PM 42.3522 -72.6058 27° Northeast 366 421 17,000  Level Boston Center
03:44PM 42.4442 -72.5414 27° Northeast 366 421 17,000  Level Boston Center
03:45PM 42.5339 -72.4767 28° Northeast 366 421 17,000  Level Boston Center
03:46PM 42.6358 -72.4061 27° Northeast 366 421 17,000 -480 Level Boston Center
03:47PM 42.7067 -72.3553 28° Northeast 366 421 16,100 -1,740 Descending Boston Center
03:48PM 42.7878 -72.2592 41° Northeast 343 395 13,600 -2,640 Descending Boston Center
03:49PM 42.8083 -72.1231 78° East 329 379 10,900 -1,800 Descending Boston Center
03:50PM 42.8186 -72.0183 82° East 314 361 10,000 -1,200 Descending Boston Center
03:51PM 42.8597 -71.9244 59° Northeast 265 305 8,600 -1,380 Descending Boston Center
03:52PM 42.8969 -71.8478 56° Northeast 265 305 7,300 -1,500 Descending Boston Center
03:53PM 42.9422 -71.7622 54° Northeast 255 293 5,700 -1,260 Descending Boston Center
03:54PM 42.9711 -71.6881 62° Northeast 244 281 4,800 -1,140 Descending Boston Center
03:55PM 42.9808 -71.5917 82° East 228 262 3,500 -1,320 Descending Boston Center